sensor_id;sensor_type;location;lat;lon;timestamp;pressure;altitude;pressure_sealevel;temperature;humidity
22481;BME280;11407;56.964;-2.212;2022-12-29T00:02:06;97318.22;;;16.86;54.08
22481;BME280;11407;56.964;-2.212;2022-12-29T00:04:32;97329.94;;;16.73;53.99
22481;BME280;11407;56.964;-2.212;2022-12-29T00:06:57;97325.00;;;16.65;53.71
22481;BME280;11407;56.964;-2.212;2022-12-29T00:09:23;97315.22;;;16.54;53.78
22481;BME280;11407;56.964;-2.212;2022-12-29T00:11:48;97321.53;;;16.37;53.91
22481;BME280;11407;56.964;-2.212;2022-12-29T00:14:15;97319.22;;;16.29;53.61
22481;BME280;11407;56.964;-2.212;2022-12-29T00:16:59;97328.44;;;16.26;54.15
22481;BME280;11407;56.964;-2.212;2022-12-29T00:19:25;97322.09;;;16.27;53.52
22481;BME280;11407;56.964;-2.212;2022-12-29T00:22:10;97321.53;;;16.26;53.98
22481;BME280;11407;56.964;-2.212;2022-12-29T00:24:55;97331.38;;;16.02;54.54
22481;BME280;11407;56.964;-2.212;2022-12-29T00:27:28;97334.75;;;15.98;54.83
22481;BME280;11407;56.964;-2.212;2022-12-29T00:30:15;97344.44;;;16.04;54.34
22481;BME280;11407;56.964;-2.212;2022-12-29T00:33:09;97346.16;;;16.10;54.69
22481;BME280;11407;56.964;-2.212;2022-12-29T00:36:00;97338.19;;;15.98;55.09
22481;BME280;11407;56.964;-2.212;2022-12-29T00:38:28;97341.88;;;15.97;54.98
22481;BME280;11407;56.964;-2.212;2022-12-29T00:41:13;97349.28;;;16.07;54.81
22481;BME280;11407;56.964;-2.212;2022-12-29T00:43:57;97355.50;;;16.12;54.85
22481;BME280;11407;56.964;-2.212;2022-12-29T00:46:38;97343.97;;;16.18;54.32
22481;BME280;11407;56.964;-2.212;2022-12-29T00:49:05;97345.34;;;16.09;54.58
22481;BME280;11407;56.964;-2.212;2022-12-29T00:51:50;97334.16;;;16.07;54.64
22481;BME280;11407;56.964;-2.212;2022-12-29T00:54:16;97329.97;;;16.11;54.66
22481;BME280;11407;56.964;-2.212;2022-12-29T00:56:42;97326.31;;;16.01;54.80
22481;BME280;11407;56.964;-2.212;2022-12-29T00:59:09;97327.03;;;15.96;55.37
22481;BME280;11407;56.964;-2.212;2022-12-29T01:01:36;97319.69;;;16.15;55.04
22481;BME280;11407;56.964;-2.212;2022-12-29T01:04:03;97302.69;;;16.16;54.84
22481;BME280;11407;56.964;-2.212;2022-12-29T01:06:28;97295.44;;;16.11;54.89
22481;BME280;11407;56.964;-2.212;2022-12-29T01:08:54;97282.41;;;16.10;54.31
22481;BME280;11407;56.964;-2.212;2022-12-29T01:11:38;97302.03;;;16.09;54.76
22481;BME280;11407;56.964;-2.212;2022-12-29T01:14:04;97314.75;;;16.07;54.34
22481;BME280;11407;56.964;-2.212;2022-12-29T01:16:30;97314.06;;;16.00;54.45
22481;BME280;11407;56.964;-2.212;2022-12-29T01:18:56;97321.91;;;15.95;54.66
22481;BME280;11407;56.964;-2.212;2022-12-29T01:21:21;97313.63;;;15.91;54.47
22481;BME280;11407;56.964;-2.212;2022-12-29T01:23:47;97308.09;;;15.81;53.94
22481;BME280;11407;56.964;-2.212;2022-12-29T01:26:14;97308.66;;;15.72;54.22
22481;BME280;11407;56.964;-2.212;2022-12-29T01:28:41;97297.00;;;15.84;53.70
22481;BME280;11407;56.964;-2.212;2022-12-29T01:31:10;97301.88;;;15.76;53.51
22481;BME280;11407;56.964;-2.212;2022-12-29T01:33:37;97303.00;;;15.45;53.79
22481;BME280;11407;56.964;-2.212;2022-12-29T01:36:04;97295.16;;;15.39;54.14
22481;BME280;11407;56.964;-2.212;2022-12-29T01:38:31;97300.47;;;15.39;54.06
22481;BME280;11407;56.964;-2.212;2022-12-29T01:40:57;97304.50;;;15.30;54.53
22481;BME280;11407;56.964;-2.212;2022-12-29T01:43:39;97287.69;;;15.47;54.01
22481;BME280;11407;56.964;-2.212;2022-12-29T01:46:10;97282.03;;;15.44;54.40
22481;BME280;11407;56.964;-2.212;2022-12-29T01:48:42;97288.25;;;15.38;54.54
22481;BME280;11407;56.964;-2.212;2022-12-29T01:51:07;97288.59;;;15.30;54.93
22481;BME280;11407;56.964;-2.212;2022-12-29T01:53:34;97292.38;;;15.34;54.51
22481;BME280;11407;56.964;-2.212;2022-12-29T01:56:04;97299.44;;;15.40;54.76
22481;BME280;11407;56.964;-2.212;2022-12-29T01:58:35;97302.53;;;15.26;54.87
22481;BME280;11407;56.964;-2.212;2022-12-29T02:01:03;97296.22;;;15.27;55.48
22481;BME280;11407;56.964;-2.212;2022-12-29T02:03:30;97283.28;;;15.30;55.49
22481;BME280;11407;56.964;-2.212;2022-12-29T02:06:07;97274.19;;;15.38;54.74
22481;BME280;11407;56.964;-2.212;2022-12-29T02:08:35;97280.97;;;15.34;54.35
22481;BME280;11407;56.964;-2.212;2022-12-29T02:11:02;97278.16;;;15.17;54.92
22481;BME280;11407;56.964;-2.212;2022-12-29T02:13:28;97289.34;;;15.19;54.44
22481;BME280;11407;56.964;-2.212;2022-12-29T02:16:07;97286.22;;;15.11;54.73
22481;BME280;11407;56.964;-2.212;2022-12-29T02:22:17;97287.00;;;15.11;54.49
22481;BME280;11407;56.964;-2.212;2022-12-29T02:27:48;97308.56;;;15.03;54.60
22481;BME280;11407;56.964;-2.212;2022-12-29T02:35:54;97339.69;;;14.96;55.36
22481;BME280;11407;56.964;-2.212;2022-12-29T02:41:23;97334.84;;;15.05;54.85
22481;BME280;11407;56.964;-2.212;2022-12-29T02:46:28;97355.13;;;14.99;54.40
22481;BME280;11407;56.964;-2.212;2022-12-29T02:49:01;97355.63;;;15.08;54.54
22481;BME280;11407;56.964;-2.212;2022-12-29T02:51:57;97360.09;;;14.96;54.21
22481;BME280;11407;56.964;-2.212;2022-12-29T02:54:19;97370.50;;;14.97;54.45
22481;BME280;11407;56.964;-2.212;2022-12-29T02:57:08;97379.31;;;14.80;54.69
22481;BME280;11407;56.964;-2.212;2022-12-29T02:59:34;97392.75;;;14.78;54.33
22481;BME280;11407;56.964;-2.212;2022-12-29T03:13:23;97426.66;;;14.58;54.32
22481;BME280;11407;56.964;-2.212;2022-12-29T03:21:29;97433.81;;;14.58;54.09
22481;BME280;11407;56.964;-2.212;2022-12-29T03:24:17;97439.63;;;14.48;54.57
22481;BME280;11407;56.964;-2.212;2022-12-29T03:26:45;97442.69;;;14.45;54.13
22481;BME280;11407;56.964;-2.212;2022-12-29T03:29:14;97455.00;;;14.40;54.79
22481;BME280;11407;56.964;-2.212;2022-12-29T03:31:40;97468.81;;;14.24;54.41
22481;BME280;11407;56.964;-2.212;2022-12-29T03:34:07;97480.59;;;14.28;53.67
22481;BME280;11407;56.964;-2.212;2022-12-29T03:36:50;97487.34;;;14.24;54.05
22481;BME280;11407;56.964;-2.212;2022-12-29T03:39:17;97491.31;;;14.15;54.05
22481;BME280;11407;56.964;-2.212;2022-12-29T03:41:45;97488.47;;;14.10;53.77
22481;BME280;11407;56.964;-2.212;2022-12-29T03:44:12;97494.22;;;13.83;54.38
22481;BME280;11407;56.964;-2.212;2022-12-29T03:46:38;97499.00;;;13.68;54.84
22481;BME280;11407;56.964;-2.212;2022-12-29T03:49:04;97504.97;;;13.57;55.12
22481;BME280;11407;56.964;-2.212;2022-12-29T03:51:29;97518.25;;;13.51;55.00
22481;BME280;11407;56.964;-2.212;2022-12-29T03:53:55;97513.38;;;13.48;55.33
22481;BME280;11407;56.964;-2.212;2022-12-29T03:56:20;97521.13;;;13.43;54.79
22481;BME280;11407;56.964;-2.212;2022-12-29T03:58:46;97529.28;;;13.41;55.17
22481;BME280;11407;56.964;-2.212;2022-12-29T04:01:11;97520.72;;;13.46;55.24
22481;BME280;11407;56.964;-2.212;2022-12-29T04:03:37;97518.66;;;13.48;54.48
22481;BME280;11407;56.964;-2.212;2022-12-29T04:06:02;97524.56;;;13.50;54.83
22481;BME280;11407;56.964;-2.212;2022-12-29T04:08:27;97531.50;;;13.44;54.66
22481;BME280;11407;56.964;-2.212;2022-12-29T04:10:53;97520.25;;;13.55;54.69
22481;BME280;11407;56.964;-2.212;2022-12-29T04:13:18;97540.00;;;13.52;54.26
22481;BME280;11407;56.964;-2.212;2022-12-29T04:15:44;97547.56;;;13.43;54.57
22481;BME280;11407;56.964;-2.212;2022-12-29T04:18:11;97554.03;;;13.53;54.33
22481;BME280;11407;56.964;-2.212;2022-12-29T04:20:36;97566.72;;;13.38;54.78
22481;BME280;11407;56.964;-2.212;2022-12-29T04:23:20;97578.31;;;13.37;54.07
22481;BME280;11407;56.964;-2.212;2022-12-29T04:25:46;97586.72;;;13.28;54.03
22481;BME280;11407;56.964;-2.212;2022-12-29T04:28:13;97588.78;;;13.19;54.19
22481;BME280;11407;56.964;-2.212;2022-12-29T04:30:38;97587.56;;;13.22;54.04
22481;BME280;11407;56.964;-2.212;2022-12-29T04:33:04;97606.53;;;13.12;53.89
22481;BME280;11407;56.964;-2.212;2022-12-29T04:35:29;97603.88;;;13.12;54.36
22481;BME280;11407;56.964;-2.212;2022-12-29T04:37:54;97594.13;;;13.06;54.94
22481;BME280;11407;56.964;-2.212;2022-12-29T04:40:20;97597.38;;;13.08;54.23
22481;BME280;11407;56.964;-2.212;2022-12-29T04:42:45;97610.81;;;12.87;54.21
22481;BME280;11407;56.964;-2.212;2022-12-29T04:45:11;97610.22;;;12.92;54.44
22481;BME280;11407;56.964;-2.212;2022-12-29T04:47:36;97619.38;;;12.83;55.01
22481;BME280;11407;56.964;-2.212;2022-12-29T04:50:02;97626.88;;;12.92;54.69
22481;BME280;11407;56.964;-2.212;2022-12-29T04:52:28;97624.84;;;13.01;54.39
22481;BME280;11407;56.964;-2.212;2022-12-29T04:54:53;97621.41;;;12.94;53.75
22481;BME280;11407;56.964;-2.212;2022-12-29T04:57:19;97629.50;;;12.86;53.93
22481;BME280;11407;56.964;-2.212;2022-12-29T04:59:44;97636.44;;;12.80;54.31
22481;BME280;11407;56.964;-2.212;2022-12-29T05:02:10;97647.22;;;12.72;54.26
22481;BME280;11407;56.964;-2.212;2022-12-29T05:04:35;97641.31;;;12.70;54.32
22481;BME280;11407;56.964;-2.212;2022-12-29T05:07:00;97646.41;;;12.78;53.75
22481;BME280;11407;56.964;-2.212;2022-12-29T05:09:26;97660.84;;;12.69;54.25
22481;BME280;11407;56.964;-2.212;2022-12-29T05:11:51;97658.41;;;12.74;54.25
22481;BME280;11407;56.964;-2.212;2022-12-29T05:14:17;97668.75;;;12.82;54.35
22481;BME280;11407;56.964;-2.212;2022-12-29T05:16:42;97673.63;;;12.85;54.08
22481;BME280;11407;56.964;-2.212;2022-12-29T05:19:07;97691.13;;;12.86;54.58
22481;BME280;11407;56.964;-2.212;2022-12-29T05:21:33;97691.16;;;12.93;54.41
22481;BME280;11407;56.964;-2.212;2022-12-29T05:23:58;97693.78;;;13.12;54.35
22481;BME280;11407;56.964;-2.212;2022-12-29T05:26:24;97709.00;;;13.23;53.58
22481;BME280;11407;56.964;-2.212;2022-12-29T05:28:49;97708.38;;;13.28;54.00
22481;BME280;11407;56.964;-2.212;2022-12-29T05:31:14;97715.09;;;13.30;53.74
22481;BME280;11407;56.964;-2.212;2022-12-29T05:33:40;97728.50;;;13.35;53.59
22481;BME280;11407;56.964;-2.212;2022-12-29T05:36:06;97729.50;;;13.41;53.54
22481;BME280;11407;56.964;-2.212;2022-12-29T05:38:32;97729.72;;;13.26;54.13
22481;BME280;11407;56.964;-2.212;2022-12-29T05:40:58;97742.56;;;13.23;54.38
22481;BME280;11407;56.964;-2.212;2022-12-29T05:43:23;97742.78;;;13.15;53.99
22481;BME280;11407;56.964;-2.212;2022-12-29T05:45:49;97750.09;;;13.19;53.80
22481;BME280;11407;56.964;-2.212;2022-12-29T05:48:15;97746.44;;;13.14;53.91
22481;BME280;11407;56.964;-2.212;2022-12-29T05:50:40;97756.63;;;13.10;53.92
22481;BME280;11407;56.964;-2.212;2022-12-29T05:53:06;97756.63;;;13.04;53.78
22481;BME280;11407;56.964;-2.212;2022-12-29T05:55:31;97762.06;;;13.28;53.17
22481;BME280;11407;56.964;-2.212;2022-12-29T05:57:57;97771.03;;;13.14;53.25
22481;BME280;11407;56.964;-2.212;2022-12-29T06:00:23;97776.94;;;13.03;53.73
22481;BME280;11407;56.964;-2.212;2022-12-29T06:02:49;97774.91;;;13.05;53.05
22481;BME280;11407;56.964;-2.212;2022-12-29T06:05:14;97781.22;;;12.98;53.14
22481;BME280;11407;56.964;-2.212;2022-12-29T06:07:40;97787.50;;;12.90;53.66
22481;BME280;11407;56.964;-2.212;2022-12-29T06:10:06;97797.28;;;12.90;54.19
22481;BME280;11407;56.964;-2.212;2022-12-29T06:12:32;97814.09;;;12.82;53.48
22481;BME280;11407;56.964;-2.212;2022-12-29T06:14:57;97815.53;;;12.72;54.23
22481;BME280;11407;56.964;-2.212;2022-12-29T06:17:23;97826.69;;;12.61;53.62
22481;BME280;11407;56.964;-2.212;2022-12-29T06:19:48;97837.66;;;12.58;53.96
22481;BME280;11407;56.964;-2.212;2022-12-29T06:22:13;97837.84;;;12.63;54.71
22481;BME280;11407;56.964;-2.212;2022-12-29T06:24:39;97830.53;;;12.65;53.93
22481;BME280;11407;56.964;-2.212;2022-12-29T06:27:05;97843.38;;;12.74;54.17
22481;BME280;11407;56.964;-2.212;2022-12-29T06:29:30;97853.53;;;12.71;53.95
22481;BME280;11407;56.964;-2.212;2022-12-29T06:31:56;97863.28;;;12.70;53.56
22481;BME280;11407;56.964;-2.212;2022-12-29T06:34:24;97873.66;;;12.72;53.63
22481;BME280;11407;56.964;-2.212;2022-12-29T06:36:50;97882.38;;;12.66;53.90
22481;BME280;11407;56.964;-2.212;2022-12-29T06:39:16;97879.53;;;12.74;53.17
22481;BME280;11407;56.964;-2.212;2022-12-29T06:41:41;97890.53;;;12.71;53.11
22481;BME280;11407;56.964;-2.212;2022-12-29T06:44:06;97896.97;;;12.56;53.07
22481;BME280;11407;56.964;-2.212;2022-12-29T06:46:32;97915.81;;;12.46;53.38
22481;BME280;11407;56.964;-2.212;2022-12-29T06:48:57;97924.69;;;12.32;53.21
22481;BME280;11407;56.964;-2.212;2022-12-29T06:51:23;97937.91;;;12.32;53.46
22481;BME280;11407;56.964;-2.212;2022-12-29T06:53:48;97953.25;;;12.16;52.83
22481;BME280;11407;56.964;-2.212;2022-12-29T06:56:14;97964.53;;;12.03;53.03
22481;BME280;11407;56.964;-2.212;2022-12-29T06:58:39;97963.38;;;11.85;53.43
22481;BME280;11407;56.964;-2.212;2022-12-29T07:01:05;97966.41;;;11.82;53.15
22481;BME280;11407;56.964;-2.212;2022-12-29T07:03:30;97976.31;;;11.80;52.96
22481;BME280;11407;56.964;-2.212;2022-12-29T07:05:56;97976.53;;;11.78;53.20
22481;BME280;11407;56.964;-2.212;2022-12-29T07:08:23;97974.56;;;11.66;53.27
22481;BME280;11407;56.964;-2.212;2022-12-29T07:10:48;97981.69;;;11.66;53.13
22481;BME280;11407;56.964;-2.212;2022-12-29T07:13:14;97982.41;;;11.80;52.78
22481;BME280;11407;56.964;-2.212;2022-12-29T07:15:39;97977.69;;;11.76;52.83
22481;BME280;11407;56.964;-2.212;2022-12-29T07:18:05;97983.56;;;11.71;52.53
22481;BME280;11407;56.964;-2.212;2022-12-29T07:20:31;97991.41;;;11.65;52.42
22481;BME280;11407;56.964;-2.212;2022-12-29T07:22:56;98002.22;;;11.49;52.77
22481;BME280;11407;56.964;-2.212;2022-12-29T07:25:22;97999.66;;;11.41;53.02
22481;BME280;11407;56.964;-2.212;2022-12-29T07:27:47;98004.88;;;11.35;52.90
22481;BME280;11407;56.964;-2.212;2022-12-29T07:30:13;98004.44;;;11.31;52.71
22481;BME280;11407;56.964;-2.212;2022-12-29T07:32:39;98011.47;;;11.24;52.82
22481;BME280;11407;56.964;-2.212;2022-12-29T07:35:05;98026.03;;;11.20;52.80
22481;BME280;11407;56.964;-2.212;2022-12-29T07:37:30;98027.41;;;11.16;52.88
22481;BME280;11407;56.964;-2.212;2022-12-29T07:39:56;98028.50;;;11.22;53.19
22481;BME280;11407;56.964;-2.212;2022-12-29T07:42:21;98039.28;;;11.27;53.24
22481;BME280;11407;56.964;-2.212;2022-12-29T07:44:46;98053.09;;;11.29;53.49
22481;BME280;11407;56.964;-2.212;2022-12-29T07:47:12;98050.47;;;11.50;53.36
22481;BME280;11407;56.964;-2.212;2022-12-29T07:49:37;98053.59;;;11.53;53.07
22481;BME280;11407;56.964;-2.212;2022-12-29T07:52:03;98051.00;;;11.60;53.30
22481;BME280;11407;56.964;-2.212;2022-12-29T07:54:28;98048.00;;;11.63;52.97
22481;BME280;11407;56.964;-2.212;2022-12-29T07:56:54;98060.81;;;11.66;52.80
22481;BME280;11407;56.964;-2.212;2022-12-29T07:59:19;98058.56;;;11.63;52.85
22481;BME280;11407;56.964;-2.212;2022-12-29T08:01:45;98050.34;;;11.72;53.36
22481;BME280;11407;56.964;-2.212;2022-12-29T08:04:10;98057.75;;;11.83;52.92
22481;BME280;11407;56.964;-2.212;2022-12-29T08:06:35;98051.63;;;11.82;52.87
22481;BME280;11407;56.964;-2.212;2022-12-29T08:09:03;98051.06;;;11.87;53.42
22481;BME280;11407;56.964;-2.212;2022-12-29T08:11:29;98063.75;;;11.98;52.60
22481;BME280;11407;56.964;-2.212;2022-12-29T08:13:54;98056.47;;;11.79;53.14
22481;BME280;11407;56.964;-2.212;2022-12-29T08:16:19;98063.97;;;11.75;53.61
22481;BME280;11407;56.964;-2.212;2022-12-29T08:18:45;98066.91;;;11.87;53.26
22481;BME280;11407;56.964;-2.212;2022-12-29T08:21:10;98071.03;;;11.75;53.54
22481;BME280;11407;56.964;-2.212;2022-12-29T08:23:36;98068.66;;;11.80;52.94
22481;BME280;11407;56.964;-2.212;2022-12-29T08:26:05;98073.16;;;11.79;52.69
22481;BME280;11407;56.964;-2.212;2022-12-29T08:28:32;98081.44;;;11.76;52.86
22481;BME280;11407;56.964;-2.212;2022-12-29T08:30:59;98088.91;;;11.73;52.51
22481;BME280;11407;56.964;-2.212;2022-12-29T08:33:25;98089.28;;;11.70;52.67
22481;BME280;11407;56.964;-2.212;2022-12-29T08:35:51;98105.22;;;11.62;52.52
22481;BME280;11407;56.964;-2.212;2022-12-29T08:38:17;98114.75;;;11.63;52.42
22481;BME280;11407;56.964;-2.212;2022-12-29T08:40:43;98117.03;;;11.52;52.85
22481;BME280;11407;56.964;-2.212;2022-12-29T08:43:08;98127.97;;;11.49;52.72
22481;BME280;11407;56.964;-2.212;2022-12-29T08:45:34;98133.78;;;11.44;52.96
22481;BME280;11407;56.964;-2.212;2022-12-29T08:47:59;98129.88;;;11.40;52.63
22481;BME280;11407;56.964;-2.212;2022-12-29T08:50:25;98135.44;;;11.45;52.43
22481;BME280;11407;56.964;-2.212;2022-12-29T08:52:50;98140.91;;;11.44;52.59
22481;BME280;11407;56.964;-2.212;2022-12-29T08:55:16;98144.97;;;11.46;52.81
22481;BME280;11407;56.964;-2.212;2022-12-29T08:57:41;98151.16;;;11.39;52.69
22481;BME280;11407;56.964;-2.212;2022-12-29T09:00:07;98146.16;;;11.44;53.07
22481;BME280;11407;56.964;-2.212;2022-12-29T09:02:33;98154.44;;;11.41;53.37
22481;BME280;11407;56.964;-2.212;2022-12-29T09:04:58;98163.25;;;11.48;53.15
22481;BME280;11407;56.964;-2.212;2022-12-29T09:07:25;98175.53;;;11.55;52.99
22481;BME280;11407;56.964;-2.212;2022-12-29T09:09:50;98178.38;;;11.54;53.04
22481;BME280;11407;56.964;-2.212;2022-12-29T09:12:17;98179.53;;;11.51;53.20
22481;BME280;11407;56.964;-2.212;2022-12-29T09:14:43;98181.16;;;11.52;53.74
22481;BME280;11407;56.964;-2.212;2022-12-29T09:17:10;98189.25;;;11.65;53.40
22481;BME280;11407;56.964;-2.212;2022-12-29T09:19:54;98179.34;;;11.67;54.05
22481;BME280;11407;56.964;-2.212;2022-12-29T09:22:20;98180.78;;;11.84;53.92
22481;BME280;11407;56.964;-2.212;2022-12-29T09:24:45;98185.84;;;11.85;54.05
22481;BME280;11407;56.964;-2.212;2022-12-29T09:27:11;98192.75;;;11.86;53.98
22481;BME280;11407;56.964;-2.212;2022-12-29T09:29:36;98204.91;;;12.02;53.84
22481;BME280;11407;56.964;-2.212;2022-12-29T09:32:01;98216.84;;;11.98;53.76
22481;BME280;11407;56.964;-2.212;2022-12-29T09:34:27;98218.16;;;11.87;54.89
22481;BME280;11407;56.964;-2.212;2022-12-29T09:36:52;98219.88;;;11.95;54.25
22481;BME280;11407;56.964;-2.212;2022-12-29T09:39:18;98223.16;;;12.18;53.87
22481;BME280;11407;56.964;-2.212;2022-12-29T09:42:01;98229.53;;;12.23;53.44
22481;BME280;11407;56.964;-2.212;2022-12-29T09:47:09;98229.00;;;12.13;53.09
22481;BME280;11407;56.964;-2.212;2022-12-29T09:49:46;98228.81;;;12.15;52.93
22481;BME280;11407;56.964;-2.212;2022-12-29T09:52:23;98234.94;;;12.01;52.78
22481;BME280;11407;56.964;-2.212;2022-12-29T09:55:13;98235.88;;;11.93;52.59
22481;BME280;11407;56.964;-2.212;2022-12-29T09:57:47;98251.81;;;11.85;52.93
22481;BME280;11407;56.964;-2.212;2022-12-29T10:00:20;98260.28;;;11.81;53.48
22481;BME280;11407;56.964;-2.212;2022-12-29T10:05:39;98253.91;;;11.90;53.23
22481;BME280;11407;56.964;-2.212;2022-12-29T10:10:56;98268.84;;;11.83;53.69
22481;BME280;11407;56.964;-2.212;2022-12-29T10:14:19;98261.19;;;11.88;53.30
22481;BME280;11407;56.964;-2.212;2022-12-29T10:16:18;98269.50;;;11.85;54.01
22481;BME280;11407;56.964;-2.212;2022-12-29T10:19:01;98278.47;;;11.76;54.42
22481;BME280;11407;56.964;-2.212;2022-12-29T10:24:04;98291.13;;;11.80;54.78
22481;BME280;11407;56.964;-2.212;2022-12-29T10:26:44;98301.03;;;11.93;54.74
22481;BME280;11407;56.964;-2.212;2022-12-29T10:29:19;98303.31;;;11.96;54.76
22481;BME280;11407;56.964;-2.212;2022-12-29T10:32:11;98298.66;;;11.98;54.90
22481;BME280;11407;56.964;-2.212;2022-12-29T10:34:44;98299.94;;;12.02;54.09
22481;BME280;11407;56.964;-2.212;2022-12-29T10:37:17;98298.81;;;12.11;54.42
22481;BME280;11407;56.964;-2.212;2022-12-29T10:39:54;98306.19;;;12.15;54.66
22481;BME280;11407;56.964;-2.212;2022-12-29T10:42:39;98305.94;;;12.10;54.22
22481;BME280;11407;56.964;-2.212;2022-12-29T10:45:13;98303.38;;;12.17;54.36
22481;BME280;11407;56.964;-2.212;2022-12-29T10:47:49;98313.19;;;12.23;55.06
22481;BME280;11407;56.964;-2.212;2022-12-29T10:50:16;98313.84;;;12.10;54.03
22481;BME280;11407;56.964;-2.212;2022-12-29T10:52:41;98305.81;;;12.18;54.85
22481;BME280;11407;56.964;-2.212;2022-12-29T10:55:15;98315.53;;;12.32;54.81
22481;BME280;11407;56.964;-2.212;2022-12-29T10:57:45;98310.81;;;12.28;54.30
22481;BME280;11407;56.964;-2.212;2022-12-29T11:00:17;98310.84;;;12.49;54.03
22481;BME280;11407;56.964;-2.212;2022-12-29T11:03:13;98315.94;;;12.50;54.41
22481;BME280;11407;56.964;-2.212;2022-12-29T11:05:49;98328.63;;;12.40;54.55
22481;BME280;11407;56.964;-2.212;2022-12-29T11:08:20;98334.19;;;12.45;55.13
22481;BME280;11407;56.964;-2.212;2022-12-29T11:11:06;98344.31;;;12.42;55.16
22481;BME280;11407;56.964;-2.212;2022-12-29T11:13:34;98332.97;;;12.48;55.54
22481;BME280;11407;56.964;-2.212;2022-12-29T11:16:00;98334.25;;;12.52;55.55
22481;BME280;11407;56.964;-2.212;2022-12-29T11:18:37;98332.13;;;12.61;55.14
22481;BME280;11407;56.964;-2.212;2022-12-29T11:21:05;98330.91;;;12.85;55.51
22481;BME280;11407;56.964;-2.212;2022-12-29T11:23:35;98337.50;;;12.89;55.08
22481;BME280;11407;56.964;-2.212;2022-12-29T11:28:33;98338.50;;;13.09;54.46
22481;BME280;11407;56.964;-2.212;2022-12-29T11:31:00;98327.91;;;13.09;55.08
22481;BME280;11407;56.964;-2.212;2022-12-29T11:33:31;98334.09;;;13.16;55.36
22481;BME280;11407;56.964;-2.212;2022-12-29T11:35:58;98334.72;;;13.18;54.99
22481;BME280;11407;56.964;-2.212;2022-12-29T11:38:39;98343.78;;;13.30;54.97
22481;BME280;11407;56.964;-2.212;2022-12-29T11:41:10;98330.41;;;13.38;54.59
22481;BME280;11407;56.964;-2.212;2022-12-29T11:43:39;98327.19;;;13.42;54.75
22481;BME280;11407;56.964;-2.212;2022-12-29T11:46:06;98334.91;;;13.44;54.84
22481;BME280;11407;56.964;-2.212;2022-12-29T11:48:38;98347.63;;;13.54;54.29
22481;BME280;11407;56.964;-2.212;2022-12-29T11:51:05;98352.53;;;13.57;55.24
22481;BME280;11407;56.964;-2.212;2022-12-29T11:56:08;98358.69;;;13.92;53.80
22481;BME280;11407;56.964;-2.212;2022-12-29T11:58:37;98360.78;;;14.03;53.58
22481;BME280;11407;56.964;-2.212;2022-12-29T12:03:32;98354.47;;;14.04;54.22
22481;BME280;11407;56.964;-2.212;2022-12-29T12:06:04;98346.00;;;14.15;54.38
22481;BME280;11407;56.964;-2.212;2022-12-29T12:08:36;98346.16;;;14.13;53.45
22481;BME280;11407;56.964;-2.212;2022-12-29T12:11:18;98348.22;;;14.18;53.31
22481;BME280;11407;56.964;-2.212;2022-12-29T12:13:58;98348.22;;;14.18;54.12
22481;BME280;11407;56.964;-2.212;2022-12-29T12:16:31;98344.56;;;14.19;53.84
22481;BME280;11407;56.964;-2.212;2022-12-29T12:19:04;98338.91;;;14.28;53.51
22481;BME280;11407;56.964;-2.212;2022-12-29T12:21:43;98340.31;;;14.24;53.81
22481;BME280;11407;56.964;-2.212;2022-12-29T12:24:41;98334.22;;;14.24;54.18
22481;BME280;11407;56.964;-2.212;2022-12-29T12:27:17;98343.38;;;14.21;54.63
22481;BME280;11407;56.964;-2.212;2022-12-29T12:32:41;98348.03;;;14.19;54.58
22481;BME280;11407;56.964;-2.212;2022-12-29T12:35:23;98337.16;;;14.08;54.05
22481;BME280;11407;56.964;-2.212;2022-12-29T12:43:01;98355.00;;;14.27;54.96
22481;BME280;11407;56.964;-2.212;2022-12-29T13:21:02;98365.19;;;13.96;55.45
22481;BME280;11407;56.964;-2.212;2022-12-29T13:23:39;98363.94;;;14.19;54.48
22481;BME280;11407;56.964;-2.212;2022-12-29T13:26:16;98369.00;;;14.14;54.91
22481;BME280;11407;56.964;-2.212;2022-12-29T13:36:53;98378.78;;;14.14;54.68
22481;BME280;11407;56.964;-2.212;2022-12-29T13:39:24;98378.19;;;14.18;54.34
22481;BME280;11407;56.964;-2.212;2022-12-29T13:41:53;98376.59;;;14.24;54.35
22481;BME280;11407;56.964;-2.212;2022-12-29T13:44:25;98376.41;;;14.32;54.49
22481;BME280;11407;56.964;-2.212;2022-12-29T13:46:53;98375.41;;;14.33;54.97
22481;BME280;11407;56.964;-2.212;2022-12-29T13:49:20;98380.56;;;14.41;55.17
22481;BME280;11407;56.964;-2.212;2022-12-29T13:51:53;98385.84;;;14.34;55.09
22481;BME280;11407;56.964;-2.212;2022-12-29T13:57:08;98378.53;;;14.49;54.36
22481;BME280;11407;56.964;-2.212;2022-12-29T13:59:52;98386.31;;;14.50;54.70
22481;BME280;11407;56.964;-2.212;2022-12-29T14:07:49;98385.91;;;14.60;54.15
22481;BME280;11407;56.964;-2.212;2022-12-29T14:13:00;98394.13;;;14.25;55.33
22481;BME280;11407;56.964;-2.212;2022-12-29T14:15:27;98393.44;;;14.56;54.98
22481;BME280;11407;56.964;-2.212;2022-12-29T14:20:39;98390.03;;;14.62;54.40
22481;BME280;11407;56.964;-2.212;2022-12-29T14:26:11;98394.31;;;14.63;53.92
22481;BME280;11407;56.964;-2.212;2022-12-29T14:28:42;98391.03;;;14.61;54.27
22481;BME280;11407;56.964;-2.212;2022-12-29T14:36:42;98402.06;;;14.65;53.63
22481;BME280;11407;56.964;-2.212;2022-12-29T14:39:39;98401.41;;;14.56;53.25
22481;BME280;11407;56.964;-2.212;2022-12-29T14:44:53;98411.63;;;14.59;53.32
22481;BME280;11407;56.964;-2.212;2022-12-29T14:47:32;98402.66;;;14.60;52.68
22481;BME280;11407;56.964;-2.212;2022-12-29T14:57:43;98398.34;;;14.53;52.95
22481;BME280;11407;56.964;-2.212;2022-12-29T15:00:21;98404.44;;;14.53;52.39
22481;BME280;11407;56.964;-2.212;2022-12-29T15:03:20;98399.13;;;14.53;51.55
22481;BME280;11407;56.964;-2.212;2022-12-29T15:05:51;98403.72;;;14.26;52.76
22481;BME280;11407;56.964;-2.212;2022-12-29T15:08:20;98408.16;;;14.19;53.20
22481;BME280;11407;56.964;-2.212;2022-12-29T15:11:06;98406.91;;;14.15;52.87
22481;BME280;11407;56.964;-2.212;2022-12-29T15:13:38;98409.94;;;14.12;53.16
22481;BME280;11407;56.964;-2.212;2022-12-29T15:16:05;98410.66;;;13.99;53.25
22481;BME280;11407;56.964;-2.212;2022-12-29T15:18:45;98417.59;;;14.00;53.30
22481;BME280;11407;56.964;-2.212;2022-12-29T15:21:13;98424.16;;;14.11;52.28